Time,TemperatureF,DewpointF,PressureIn,WindDirection,WindDirectionDegrees,WindSpeedMPH,WindSpeedGustMPH,Humidity,HourlyPrecipIn,Conditions,Clouds,dailyrainin,SoftwareType,DateUTC
2013-02-10 00:02:00,77.7,65.0,29.35,West,270,0.0,0.0,65,0.00,CLR,OVC,0.00,WeatherDisplay:10.37,2013-02-09 13:02:00,
2013-02-10 00:07:00,77.7,65.0,29.35,West,270,2.3,2.3,65,0.00,CLR,OVC,0.00,WeatherDisplay:10.37,2013-02-09 13:07:00,
2013-02-10 00:12:00,77.5,64.8,29.35,SSW,202,0.0,0.0,65,0.00,CLR,OVC,0.00,WeatherDisplay:10.37,2013-02-09 13:12:00,
2013-02-10 00:17:00,77.5,64.8,29.35,WSW,248,0.0,0.0,65,0.00,CLR,OVC,0.00,WeatherDisplay:10.37,2013-02-09 13:17:00,
2013-02-10 00:22:00,77.5,64.8,29.35,WSW,248,0.0,0.0,65,0.00,CLR,OVC,0.00,WeatherDisplay:10.37,2013-02-09 13:22:00,
2013-02-10 00:27:00,77.5,64.8,29.35,West,270,0.0,0.0,65,0.00,CLR,OVC,0.00,WeatherDisplay:10.37,2013-02-09 13:27:00,
2013-02-10 00:32:00,77.5,65.3,29.35,WNW,292,0.0,0.0,66,0.00,CLR,OVC,0.00,WeatherDisplay:10.37,2013-02-09 13:32:00,
2013-02-10 00:37:00,77.5,64.8,29.35,WNW,292,0.0,0.0,65,0.00,CLR,OVC,0.00,WeatherDisplay:10.37,2013-02-09 13:37:00,
2013-02-10 00:42:00,77.5,64.8,29.35,WNW,292,0.0,0.0,65,0.00,CLR,OVC,0.00,WeatherDisplay:10.37,2013-02-09 13:42:00,
2013-02-10 00:47:00,77.5,65.3,29.35,West,270,0.0,0.0,66,0.00,CLR,OVC,0.00,WeatherDisplay:10.37,2013-02-09 13:47:00,
2013-02-10 00:52:00,77.5,65.3,29.35,South,180,0.0,0.0,66,0.00,CLR,OVC,0.00,WeatherDisplay:10.37,2013-02-09 13:52:00,
2013-02-10 00:57:00,77.5,65.3,29.35,NW,315,3.1,3.1,66,0.00,CLR,OVC,0.00,WeatherDisplay:10.37,2013-02-09 13:57:00,
2013-02-10 01:02:00,77.4,65.1,29.35,South,180,0.0,0.0,66,0.00,CLR,OVC,0.00,WeatherDisplay:10.37,2013-02-09 14:02:00,
2013-02-10 01:07:00,77.2,65.4,29.35,NNW,338,0.0,0.0,67,0.00,CLR,OVC,0.00,WeatherDisplay:10.37,2013-02-09 14:07:00,
2013-02-10 01:12:00,77.2,65.4,29.35,NE,45,0.0,0.0,67,0.00,CLR,OVC,0.00,WeatherDisplay:10.37,2013-02-09 14:12:00,
2013-02-10 01:17:00,77.2,65.4,29.35,West,270,0.0,0.0,67,0.00,CLR,OVC,0.00,WeatherDisplay:10.37,2013-02-09 14:17:00,
2013-02-10 01:22:00,77.2,65.4,29.35,West,270,0.0,0.0,67,0.00,CLR,OVC,0.00,WeatherDisplay:10.37,2013-02-09 14:22:00,
2013-02-10 01:27:00,77.2,65.4,29.35,WNW,292,0.0,0.0,67,0.00,CLR,OVC,0.00,WeatherDisplay:10.37,2013-02-09 14:27:00,
2013-02-10 01:32:00,77.0,65.2,29.35,WNW,292,0.0,0.0,67,0.00,CLR,OVC,0.00,WeatherDisplay:10.37,2013-02-09 14:32:00,
2013-02-10 01:37:00,77.0,65.2,29.35,West,270,1.2,0.0,67,0.00,CLR,OVC,0.00,WeatherDisplay:10.37,2013-02-09 14:37:00,
2013-02-10 01:42:00,77.0,65.2,29.35,WNW,292,0.0,0.0,67,0.00,CLR,OVC,0.00,WeatherDisplay:10.37,2013-02-09 14:42:00,
2013-02-10 01:47:00,77.0,65.6,29.35,NW,315,0.0,0.0,68,0.00,CLR,OVC,0.00,WeatherDisplay:10.37,2013-02-09 14:47:00,
2013-02-10 01:52:00,76.8,65.5,29.35,WSW,248,0.0,0.0,68,0.00,CLR,OVC,0.00,WeatherDisplay:10.37,2013-02-09 14:52:00,
2013-02-10 01:57:00,76.8,65.5,29.35,West,270,0.0,0.0,68,0.00,CLR,OVC,0.00,WeatherDisplay:10.37,2013-02-09 14:57:00,
2013-02-10 02:02:00,76.8,65.5,29.35,WNW,292,2.4,2.4,68,0.00,CLR,OVC,0.00,WeatherDisplay:10.37,2013-02-09 15:02:00,
2013-02-10 02:07:00,76.8,65.5,29.35,South,180,0.0,0.0,68,0.00,CLR,OVC,0.00,WeatherDisplay:10.37,2013-02-09 15:07:00,
2013-02-10 02:12:00,76.6,65.3,29.35,South,180,0.0,0.0,68,0.00,CLR,OVC,0.00,WeatherDisplay:10.37,2013-02-09 15:12:00,
2013-02-10 02:17:00,76.6,65.3,29.35,West,270,0.0,0.0,68,0.00,CLR,OVC,0.00,WeatherDisplay:10.37,2013-02-09 15:17:00,
2013-02-10 02:22:00,76.6,65.7,29.35,West,270,0.0,0.0,69,0.00,CLR,OVC,0.00,WeatherDisplay:10.37,2013-02-09 15:22:00,
2013-02-10 02:27:00,76.6,65.3,29.35,West,270,0.0,0.0,68,0.00,CLR,OVC,0.00,WeatherDisplay:10.37,2013-02-09 15:27:00,
2013-02-10 02:32:00,76.5,65.1,29.35,SSW,202,0.0,0.0,68,0.00,CLR,OVC,0.00,WeatherDisplay:10.37,2013-02-09 15:32:00,
2013-02-10 02:37:00,76.3,65.4,29.35,South,180,0.0,0.0,69,0.00,CLR,OVC,0.00,WeatherDisplay:10.37,2013-02-09 15:37:00,
2013-02-10 02:42:00,76.3,65.4,29.35,South,180,0.0,0.0,69,0.00,CLR,OVC,0.00,WeatherDisplay:10.37,2013-02-09 15:42:00,
2013-02-10 02:47:00,76.1,65.2,29.35,South,180,0.0,0.0,69,0.00,CLR,OVC,0.00,WeatherDisplay:10.37,2013-02-09 15:47:00,
2013-02-10 02:52:00,76.1,65.2,29.35,South,180,0.0,0.0,69,0.00,CLR,OVC,0.00,WeatherDisplay:10.37,2013-02-09 15:52:00,
2013-02-10 02:57:00,75.9,65.0,29.35,SSE,158,0.0,0.0,69,0.00,CLR,OVC,0.00,WeatherDisplay:10.37,2013-02-09 15:57:00,
2013-02-10 03:02:00,75.7,64.8,29.32,SE,135,0.0,0.0,69,0.00,CLR,OVC,0.00,WeatherDisplay:10.37,2013-02-09 16:02:00,
2013-02-10 03:07:00,75.6,65.1,29.32,East,90,0.0,0.0,70,0.00,CLR,OVC,0.00,WeatherDisplay:10.37,2013-02-09 16:07:00,
2013-02-10 03:12:00,75.4,64.9,29.32,East,90,0.0,0.0,70,0.00,CLR,OVC,0.00,WeatherDisplay:10.37,2013-02-09 16:12:00,
2013-02-10 03:17:00,75.2,64.7,29.29,SSE,158,0.0,0.0,70,0.00,CLR,OVC,0.00,WeatherDisplay:10.37,2013-02-09 16:17:00,
2013-02-10 03:22:00,75.0,64.6,29.29,SSE,158,0.0,0.0,70,0.00,CLR,OVC,0.00,WeatherDisplay:10.37,2013-02-09 16:22:00,
2013-02-10 03:27:00,75.0,65.0,29.29,SE,135,0.0,0.0,71,0.00,CLR,OVC,0.00,WeatherDisplay:10.37,2013-02-09 16:27:00,
2013-02-10 03:32:00,74.8,64.8,29.32,NW,315,0.0,0.0,71,0.00,CLR,OVC,0.00,WeatherDisplay:10.37,2013-02-09 16:32:00,
2013-02-10 03:37:00,74.7,65.0,29.32,NNW,338,0.0,0.0,72,0.00,CLR,OVC,0.00,WeatherDisplay:10.37,2013-02-09 16:37:00,
2013-02-10 03:42:00,74.7,64.6,29.32,South,180,0.0,0.0,71,0.00,CLR,OVC,0.00,WeatherDisplay:10.37,2013-02-09 16:42:00,
2013-02-10 03:48:00,74.5,64.9,29.32,SW,225,0.0,0.0,72,0.00,CLR,OVC,0.00,WeatherDisplay:10.37,2013-02-09 16:48:00,
2013-02-10 03:53:00,74.5,65.3,29.32,NNW,338,0.0,0.0,73,0.00,CLR,OVC,0.00,WeatherDisplay:10.37,2013-02-09 16:53:00,
2013-02-10 03:58:00,74.3,65.1,29.32,SW,225,0.0,0.0,73,0.00,CLR,OVC,0.00,WeatherDisplay:10.37,2013-02-09 16:58:00,
2013-02-10 04:03:00,74.1,64.5,29.32,WNW,292,0.0,0.0,72,0.00,CLR,OVC,0.00,WeatherDisplay:10.37,2013-02-09 17:03:00,
2013-02-10 04:08:00,74.1,64.9,29.32,WSW,248,0.0,0.0,73,0.00,CLR,OVC,0.00,WeatherDisplay:10.37,2013-02-09 17:08:00,
2013-02-10 04:13:00,73.9,65.1,29.32,WSW,248,0.0,0.0,74,0.00,CLR,OVC,0.00,WeatherDisplay:10.37,2013-02-09 17:13:00,
2013-02-10 04:18:00,73.9,65.1,29.32,WSW,248,0.0,0.0,74,0.00,CLR,OVC,0.00,WeatherDisplay:10.37,2013-02-09 17:18:00,
2013-02-10 04:23:00,73.8,65.0,29.32,WNW,292,0.0,0.0,74,0.00,CLR,OVC,0.00,WeatherDisplay:10.37,2013-02-09 17:23:00,
2013-02-10 04:28:00,73.8,64.6,29.32,WNW,292,0.0,0.0,73,0.00,CLR,OVC,0.00,WeatherDisplay:10.37,2013-02-09 17:28:00,
2013-02-10 04:33:00,73.6,64.8,29.29,West,270,0.0,0.0,74,0.00,CLR,OVC,0.00,WeatherDisplay:10.37,2013-02-09 17:33:00,
2013-02-10 04:38:00,73.4,64.2,29.29,West,270,0.0,0.0,73,0.00,CLR,OVC,0.00,WeatherDisplay:10.37,2013-02-09 17:38:00,
2013-02-10 04:43:00,73.2,64.0,29.29,South,180,0.0,0.0,73,0.00,CLR,OVC,0.00,WeatherDisplay:10.37,2013-02-09 17:43:00,
2013-02-10 04:48:00,73.2,64.4,29.32,South,180,0.0,0.0,74,0.00,CLR,OVC,0.00,WeatherDisplay:10.37,2013-02-09 17:48:00,
2013-02-10 04:53:00,73.0,64.3,29.32,West,270,0.0,0.0,74,0.00,CLR,OVC,0.00,WeatherDisplay:10.37,2013-02-09 17:53:00,
2013-02-10 04:58:00,72.9,63.7,29.32,West,270,0.0,0.0,73,0.00,CLR,OVC,0.00,WeatherDisplay:10.37,2013-02-09 17:58:00,
2013-02-10 05:03:00,72.9,64.5,29.29,West,270,0.0,0.0,75,0.00,CLR,OVC,0.00,WeatherDisplay:10.37,2013-02-09 18:03:00,
2013-02-10 05:08:00,72.7,64.3,29.29,West,270,0.0,0.0,75,0.00,CLR,OVC,0.00,WeatherDisplay:10.37,2013-02-09 18:08:00,
2013-02-10 05:13:00,72.7,63.9,29.29,South,180,0.0,0.0,74,0.00,CLR,OVC,0.00,WeatherDisplay:10.37,2013-02-09 18:13:00,
2013-02-10 05:18:00,72.5,64.1,29.32,WSW,248,0.0,0.0,75,0.00,CLR,OVC,0.00,WeatherDisplay:10.37,2013-02-09 18:18:00,
2013-02-10 05:23:00,72.3,63.9,29.32,ESE,112,0.0,0.0,75,0.00,CLR,OVC,0.00,WeatherDisplay:10.37,2013-02-09 18:23:00,
2013-02-10 05:28:00,72.1,63.8,29.32,SSE,158,0.0,0.0,75,0.00,CLR,OVC,0.00,WeatherDisplay:10.37,2013-02-09 18:28:00,
2013-02-10 05:33:00,72.1,63.8,29.29,SE,135,0.0,0.0,75,0.00,CLR,OVC,0.00,WeatherDisplay:10.37,2013-02-09 18:33:00,
2013-02-10 05:38:00,71.8,63.8,29.29,NW,315,0.0,0.0,76,0.00,CLR,OVC,0.00,WeatherDisplay:10.37,2013-02-09 18:38:00,
2013-02-10 05:43:00,71.8,63.8,29.29,SSE,158,0.0,0.0,76,0.00,CLR,OVC,0.00,WeatherDisplay:10.37,2013-02-09 18:43:00,
2013-02-10 05:48:00,71.6,64.0,29.29,SE,135,0.0,0.0,77,0.00,CLR,OVC,0.00,WeatherDisplay:10.37,2013-02-09 18:48:00,
2013-02-10 05:53:00,71.4,64.2,29.29,ENE,68,0.0,0.0,78,0.00,CLR,OVC,0.00,WeatherDisplay:10.37,2013-02-09 18:53:00,
2013-02-10 05:58:00,71.4,64.2,29.29,SE,135,0.0,0.0,78,0.00,CLR,OVC,0.00,WeatherDisplay:10.37,2013-02-09 18:58:00,
2013-02-10 06:03:00,71.2,63.7,29.29,South,180,0.0,0.0,77,0.00,CLR,OVC,0.00,WeatherDisplay:10.37,2013-02-09 19:03:00,
2013-02-10 06:08:00,71.2,64.0,29.29,NNE,22,0.0,0.0,78,0.00,CLR,OVC,0.00,WeatherDisplay:10.37,2013-02-09 19:08:00,
2013-02-10 06:13:00,71.1,63.9,29.29,West,270,0.0,0.0,78,0.00,CLR,OVC,0.00,WeatherDisplay:10.37,2013-02-09 19:13:00,
2013-02-10 06:18:00,71.1,63.9,29.32,West,270,0.0,0.0,78,0.00,CLR,OVC,0.00,WeatherDisplay:10.37,2013-02-09 19:18:00,
2013-02-10 06:23:00,71.1,63.9,29.32,SE,135,0.0,0.0,78,0.00,CLR,OVC,0.00,WeatherDisplay:10.37,2013-02-09 19:23:00,
2013-02-10 06:28:00,71.1,63.9,29.32,SE,135,0.0,0.0,78,0.00,CLR,OVC,0.00,WeatherDisplay:10.37,2013-02-09 19:28:00,
2013-02-10 06:33:00,70.9,63.3,29.35,West,270,0.0,0.0,77,0.00,CLR,OVC,0.00,WeatherDisplay:10.37,2013-02-09 19:33:00,
2013-02-10 06:38:00,70.9,63.7,29.35,West,270,0.0,0.0,78,0.00,CLR,OVC,0.00,WeatherDisplay:10.37,2013-02-09 19:38:00,
2013-02-10 06:43:00,70.9,63.3,29.35,WNW,292,0.0,0.0,77,0.00,CLR,OVC,0.00,WeatherDisplay:10.37,2013-02-09 19:43:00,
2013-02-10 06:48:00,70.7,63.1,29.32,WNW,292,0.0,0.0,77,0.00,CLR,OVC,0.00,WeatherDisplay:10.37,2013-02-09 19:48:00,
2013-02-10 06:53:00,70.7,63.5,29.32,WNW,292,0.0,0.0,78,0.00,CLR,OVC,0.00,WeatherDisplay:10.37,2013-02-09 19:53:00,
2013-02-10 06:58:00,70.7,63.5,29.32,WNW,292,0.0,0.0,78,0.00,CLR,OVC,0.00,WeatherDisplay:10.37,2013-02-09 19:58:00,
2013-02-10 07:03:00,70.7,63.5,29.35,ESE,112,0.0,0.0,78,0.00,CLR,OVC,0.00,WeatherDisplay:10.37,2013-02-09 20:03:00,
2013-02-10 07:08:00,70.5,63.3,29.35,SE,135,0.0,0.0,78,0.00,CLR,OVC,0.00,WeatherDisplay:10.37,2013-02-09 20:08:00,
2013-02-10 07:13:00,70.5,63.3,29.35,SE,135,0.0,0.0,78,0.00,CLR,OVC,0.00,WeatherDisplay:10.37,2013-02-09 20:13:00,
2013-02-10 07:18:00,70.7,63.9,29.35,ENE,68,0.0,0.0,79,0.00,CLR,OVC,0.00,WeatherDisplay:10.37,2013-02-09 20:18:00,
2013-02-10 07:23:00,70.7,63.9,29.35,ENE,68,0.0,0.0,79,0.00,CLR,OVC,0.00,WeatherDisplay:10.37,2013-02-09 20:23:00,
2013-02-10 07:28:00,70.7,64.2,29.35,ESE,112,0.0,0.0,80,0.00,CLR,OVC,0.00,WeatherDisplay:10.37,2013-02-09 20:28:00,
2013-02-10 07:33:00,70.9,64.4,29.35,NE,45,0.0,0.0,80,0.00,CLR,OVC,0.00,WeatherDisplay:10.37,2013-02-09 20:33:00,
2013-02-10 07:38:00,70.9,64.4,29.35,NNW,338,0.0,0.0,80,0.00,CLR,OVC,0.00,WeatherDisplay:10.37,2013-02-09 20:38:00,
2013-02-10 07:43:00,71.1,64.6,29.35,West,270,0.0,0.0,80,0.00,CLR,OVC,0.00,WeatherDisplay:10.37,2013-02-09 20:43:00,
2013-02-10 07:48:00,71.2,64.4,29.35,West,270,0.0,0.0,79,0.00,CLR,OVC,0.00,WeatherDisplay:10.37,2013-02-09 20:48:00,
2013-02-10 07:53:00,71.2,64.4,29.35,West,270,0.0,0.0,79,0.00,CLR,OVC,0.00,WeatherDisplay:10.37,2013-02-09 20:53:00,
2013-02-10 07:58:00,71.4,64.6,29.35,WNW,292,0.0,0.0,79,0.00,CLR,OVC,0.00,WeatherDisplay:10.37,2013-02-09 20:58:00,
2013-02-10 08:03:00,71.6,64.7,29.38,WNW,292,0.0,0.0,79,0.00,CLR,OVC,0.00,WeatherDisplay:10.37,2013-02-09 21:03:00,
2013-02-10 08:08:00,71.8,64.9,29.38,WNW,292,0.0,0.0,79,0.00,CLR,OVC,0.00,WeatherDisplay:10.37,2013-02-09 21:08:00,
2013-02-10 08:13:00,72.1,65.6,29.38,WNW,292,0.0,0.0,80,0.00,CLR,OVC,0.00,WeatherDisplay:10.37,2013-02-09 21:13:00,
2013-02-10 08:18:00,72.3,65.8,29.35,WNW,292,0.0,0.0,80,0.00,CLR,OVC,0.00,WeatherDisplay:10.37,2013-02-09 21:18:00,
2013-02-10 08:23:00,72.7,66.2,29.35,WNW,292,0.0,0.0,80,0.00,CLR,OVC,0.00,WeatherDisplay:10.37,2013-02-09 21:23:00,
2013-02-10 08:28:00,72.9,66.3,29.35,WNW,292,0.0,0.0,80,0.00,CLR,OVC,0.00,WeatherDisplay:10.37,2013-02-09 21:28:00,
2013-02-10 08:33:00,73.4,66.9,29.35,WNW,292,0.0,0.0,80,0.00,CLR,OVC,0.00,WeatherDisplay:10.37,2013-02-09 21:33:00,
2013-02-10 08:39:00,73.9,67.4,29.35,NW,315,2.3,2.3,80,0.00,CLR,OVC,0.00,WeatherDisplay:10.37,2013-02-09 21:39:00,
2013-02-10 08:44:00,74.3,67.4,29.35,WNW,292,1.4,1.4,79,0.00,CLR,OVC,0.00,WeatherDisplay:10.37,2013-02-09 21:44:00,
2013-02-10 08:49:00,75.2,68.2,29.38,WNW,292,0.0,0.0,79,0.00,CLR,OVC,0.00,WeatherDisplay:10.37,2013-02-09 21:49:00,
2013-02-10 08:54:00,76.6,69.3,29.38,WNW,292,0.0,0.0,78,0.00,CLR,OVC,0.00,WeatherDisplay:10.37,2013-02-09 21:54:00,
2013-02-10 08:59:00,77.9,69.7,29.38,SSW,202,0.0,0.0,76,0.00,CLR,OVC,0.00,WeatherDisplay:10.37,2013-02-09 21:59:00,
2013-02-10 09:04:00,78.8,69.8,29.35,NNW,338,0.0,0.0,74,0.00,CLR,OVC,0.00,WeatherDisplay:10.37,2013-02-09 22:04:00,
2013-02-10 09:09:00,79.9,70.4,29.35,WNW,292,0.0,0.0,73,0.00,CLR,OVC,0.00,WeatherDisplay:10.37,2013-02-09 22:09:00,
2013-02-10 09:14:00,81.1,71.3,29.35,NW,315,0.0,0.9,72,0.00,CLR,OVC,0.00,WeatherDisplay:10.37,2013-02-09 22:14:00,
2013-02-10 09:19:00,82.2,71.5,29.35,NNW,338,0.0,0.0,70,0.00,CLR,OVC,0.00,WeatherDisplay:10.37,2013-02-09 22:19:00,
2013-02-10 09:24:00,83.3,71.6,29.35,NW,315,0.0,0.0,68,0.00,CLR,OVC,0.00,WeatherDisplay:10.37,2013-02-09 22:24:00,
2013-02-10 09:29:00,84.6,71.9,29.35,ENE,68,2.3,0.0,66,0.00,CLR,OVC,0.00,WeatherDisplay:10.37,2013-02-09 22:29:00,
2013-02-10 09:34:00,85.3,71.7,29.35,WSW,248,2.3,2.3,64,0.00,CLR,OVC,0.00,WeatherDisplay:10.37,2013-02-09 22:34:00,
2013-02-10 09:39:00,86.2,71.6,29.35,NW,315,0.0,1.2,62,0.00,CLR,OVC,0.00,WeatherDisplay:10.37,2013-02-09 22:39:00,
2013-02-10 09:44:00,87.1,71.5,29.35,NW,315,2.3,2.3,60,0.00,CLR,OVC,0.00,WeatherDisplay:10.37,2013-02-09 22:44:00,
2013-02-10 09:49:00,87.4,70.8,29.35,SW,225,2.3,2.3,58,0.00,CLR,OVC,0.00,WeatherDisplay:10.37,2013-02-09 22:49:00,
2013-02-10 09:54:00,87.8,70.7,29.35,ENE,68,1.2,0.0,57,0.00,CLR,OVC,0.00,WeatherDisplay:10.37,2013-02-09 22:54:00,
2013-02-10 09:59:00,88.3,70.1,29.35,WNW,292,3.5,3.5,55,0.00,CLR,OVC,0.00,WeatherDisplay:10.37,2013-02-09 22:59:00,
2013-02-10 10:04:00,88.9,70.1,29.35,NNE,22,3.5,3.5,54,0.00,CLR,OVC,0.00,WeatherDisplay:10.37,2013-02-09 23:04:00,
2013-02-10 10:09:00,89.2,69.3,29.35,NW,315,1.2,0.0,52,0.00,CLR,OVC,0.00,WeatherDisplay:10.37,2013-02-09 23:09:00,
2013-02-10 10:14:00,90.5,69.3,29.35,SSE,158,2.9,0.0,50,0.00,CLR,OVC,0.00,WeatherDisplay:10.37,2013-02-09 23:14:00,
2013-02-10 10:19:00,90.5,68.7,29.35,SW,225,4.6,0.0,49,0.00,CLR,OVC,0.00,WeatherDisplay:10.37,2013-02-09 23:19:00,
2013-02-10 10:24:00,91.2,67.5,29.35,WSW,248,0.0,0.0,46,0.00,CLR,OVC,0.00,WeatherDisplay:10.37,2013-02-09 23:24:00,
2013-02-10 10:29:00,91.8,66.7,29.35,NNE,22,0.0,0.0,44,0.00,CLR,OVC,0.00,WeatherDisplay:10.37,2013-02-09 23:29:00,
2013-02-10 10:34:00,92.3,67.2,29.32,NNE,22,4.6,4.6,44,0.00,CLR,OVC,0.00,WeatherDisplay:10.37,2013-02-09 23:34:00,
2013-02-10 10:39:00,92.7,66.2,29.32,North,0,0.0,0.0,42,0.00,CLR,OVC,0.00,WeatherDisplay:10.37,2013-02-09 23:39:00,
2013-02-10 10:44:00,93.0,65.8,29.32,NW,315,1.2,0.0,41,0.00,CLR,OVC,0.00,WeatherDisplay:10.37,2013-02-09 23:44:00,
2013-02-10 10:49:00,93.7,65.8,29.32,NNW,338,2.3,2.3,40,0.00,CLR,OVC,0.00,WeatherDisplay:10.37,2013-02-09 23:49:00,
2013-02-10 10:54:00,94.1,66.1,29.32,West,270,2.3,2.3,40,0.00,CLR,OVC,0.00,WeatherDisplay:10.37,2013-02-09 23:54:00,
2013-02-10 10:59:00,95.0,66.2,29.32,West,270,3.5,3.5,39,0.00,CLR,OVC,0.00,WeatherDisplay:10.37,2013-02-09 23:59:00,
2013-02-10 11:04:00,95.2,65.6,29.32,North,0,2.6,2.6,38,0.00,CLR,OVC,0.00,WeatherDisplay:10.37,2013-02-10 00:04:00,
2013-02-10 11:09:00,95.9,65.4,29.32,NNE,22,2.3,2.3,37,0.00,CLR,OVC,0.00,WeatherDisplay:10.37,2013-02-10 00:09:00,
2013-02-10 11:14:00,95.7,65.3,29.32,NW,315,2.3,2.3,37,0.00,CLR,OVC,0.00,WeatherDisplay:10.37,2013-02-10 00:14:00,
2013-02-10 11:19:00,96.4,65.9,29.32,North,0,2.3,0.0,37,0.00,CLR,OVC,0.00,WeatherDisplay:10.37,2013-02-10 00:19:00,
2013-02-10 11:24:00,96.1,63.2,29.32,NNE,22,4.6,4.6,34,0.00,CLR,OVC,0.00,WeatherDisplay:10.37,2013-02-10 00:24:00,
2013-02-10 11:29:00,97.0,64.8,29.32,NNE,22,1.6,0.0,35,0.00,CLR,OVC,0.00,WeatherDisplay:10.37,2013-02-10 00:29:00,
2013-02-10 11:34:00,97.2,65.0,29.32,West,270,3.5,3.5,35,0.00,CLR,OVC,0.00,WeatherDisplay:10.37,2013-02-10 00:34:00,
2013-02-10 11:39:00,97.7,63.7,29.32,North,0,2.3,2.4,33,0.00,CLR,OVC,0.00,WeatherDisplay:10.37,2013-02-10 00:39:00,
2013-02-10 11:44:00,97.5,61.8,29.32,WNW,292,2.3,2.3,31,0.00,CLR,OVC,0.00,WeatherDisplay:10.37,2013-02-10 00:44:00,
2013-02-10 11:49:00,97.9,62.1,29.32,North,0,2.6,0.0,31,0.00,CLR,OVC,0.00,WeatherDisplay:10.37,2013-02-10 00:49:00,
2013-02-10 11:54:00,97.9,62.1,29.32,NNW,338,3.5,3.5,31,0.00,CLR,OVC,0.00,WeatherDisplay:10.37,2013-02-10 00:54:00,
2013-02-10 11:59:00,97.7,60.1,29.32,West,270,3.5,3.5,29,0.00,CLR,OVC,0.00,WeatherDisplay:10.37,2013-02-10 00:59:00,
2013-02-10 12:04:00,98.2,59.5,29.32,West,270,4.6,4.6,28,0.00,CLR,OVC,0.00,WeatherDisplay:10.37,2013-02-10 01:04:00,
2013-02-10 12:09:00,98.6,59.9,29.32,NNW,338,2.3,2.3,28,0.00,CLR,OVC,0.00,WeatherDisplay:10.37,2013-02-10 01:09:00,
2013-02-10 12:14:00,99.1,60.3,29.32,NNE,22,2.3,2.4,28,0.00,CLR,OVC,0.00,WeatherDisplay:10.37,2013-02-10 01:14:00,
2013-02-10 12:19:00,98.4,58.7,29.29,NNW,338,2.9,2.9,27,0.00,CLR,OVC,0.00,WeatherDisplay:10.37,2013-02-10 01:19:00,
2013-02-10 12:24:00,99.0,59.1,29.29,NNW,338,2.6,2.6,27,0.00,CLR,OVC,0.00,WeatherDisplay:10.37,2013-02-10 01:24:00,
2013-02-10 12:29:00,99.7,59.8,29.29,NNE,22,2.3,2.4,27,0.00,CLR,OVC,0.00,WeatherDisplay:10.37,2013-02-10 01:29:00,
2013-02-10 12:34:00,99.9,59.9,29.26,WNW,292,2.3,2.3,27,0.00,CLR,OVC,0.00,WeatherDisplay:10.37,2013-02-10 01:34:00,
2013-02-10 12:39:00,100.0,60.1,29.26,West,270,4.3,4.3,27,0.00,CLR,OVC,0.00,WeatherDisplay:10.37,2013-02-10 01:39:00,
2013-02-10 12:44:00,100.0,59.0,29.26,SE,135,2.3,2.3,26,0.00,CLR,OVC,0.00,WeatherDisplay:10.37,2013-02-10 01:44:00,
2013-02-10 12:49:00,100.2,60.2,29.26,NE,45,4.0,4.0,27,0.00,CLR,OVC,0.00,WeatherDisplay:10.37,2013-02-10 01:49:00,
2013-02-10 12:54:00,99.5,58.5,29.26,NNW,338,1.4,1.4,26,0.00,CLR,OVC,0.00,WeatherDisplay:10.37,2013-02-10 01:54:00,
2013-02-10 12:59:00,100.0,59.0,29.26,NNW,338,3.5,3.5,26,0.00,CLR,OVC,0.00,WeatherDisplay:10.37,2013-02-10 01:59:00,
2013-02-10 13:04:00,100.4,59.3,29.26,West,270,3.3,3.3,26,0.00,CLR,OVC,0.00,WeatherDisplay:10.37,2013-02-10 02:04:00,
2013-02-10 13:09:00,101.3,60.1,29.26,NE,45,2.3,2.3,26,0.00,CLR,OVC,0.00,WeatherDisplay:10.37,2013-02-10 02:09:00,
2013-02-10 13:14:00,100.9,59.8,29.26,NNE,22,4.0,4.0,26,0.00,CLR,OVC,0.00,WeatherDisplay:10.37,2013-02-10 02:14:00,
2013-02-10 13:19:00,100.6,59.5,29.26,North,0,4.6,4.6,26,0.00,CLR,OVC,0.00,WeatherDisplay:10.37,2013-02-10 02:19:00,
2013-02-10 13:24:00,100.2,59.2,29.26,NNE,22,3.5,3.5,26,0.00,CLR,OVC,0.00,WeatherDisplay:10.37,2013-02-10 02:24:00,
2013-02-10 13:29:00,100.4,59.3,29.26,NNE,22,1.4,0.0,26,0.00,CLR,OVC,0.00,WeatherDisplay:10.37,2013-02-10 02:29:00,
2013-02-10 13:34:00,100.9,59.8,29.26,West,270,5.8,5.8,26,0.00,CLR,OVC,0.00,WeatherDisplay:10.37,2013-02-10 02:34:00,
2013-02-10 13:39:00,100.9,59.8,29.26,NNW,338,2.3,2.3,26,0.00,CLR,OVC,0.00,WeatherDisplay:10.37,2013-02-10 02:39:00,
2013-02-10 13:44:00,100.9,59.8,29.26,North,0,0.0,0.0,26,0.00,CLR,OVC,0.00,WeatherDisplay:10.37,2013-02-10 02:44:00,
2013-02-10 13:49:00,101.1,59.9,29.24,NNW,338,2.2,2.2,26,0.00,CLR,OVC,0.00,WeatherDisplay:10.37,2013-02-10 02:49:00,
2013-02-10 13:54:00,100.9,59.8,29.24,NNE,22,3.6,3.6,26,0.00,CLR,OVC,0.00,WeatherDisplay:10.37,2013-02-10 02:54:00,
2013-02-10 13:59:00,100.6,59.5,29.24,NNW,338,3.5,0.0,26,0.00,CLR,OVC,0.00,WeatherDisplay:10.37,2013-02-10 02:59:00,
2013-02-10 14:04:00,101.3,60.1,29.20,WSW,248,4.0,4.0,26,0.00,CLR,OVC,0.00,WeatherDisplay:10.37,2013-02-10 03:04:00,
2013-02-10 14:09:00,101.5,60.2,29.20,ESE,112,4.6,4.6,26,0.00,CLR,OVC,0.00,WeatherDisplay:10.37,2013-02-10 03:09:00,
2013-02-10 14:14:00,100.8,59.6,29.20,NNE,22,2.6,2.6,26,0.00,CLR,OVC,0.00,WeatherDisplay:10.37,2013-02-10 03:14:00,
2013-02-10 14:19:00,101.1,59.9,29.20,NNE,22,2.4,2.4,26,0.00,CLR,OVC,0.00,WeatherDisplay:10.37,2013-02-10 03:19:00,
2013-02-10 14:25:00,100.8,58.5,29.20,East,90,2.3,0.0,25,0.00,CLR,OVC,0.00,WeatherDisplay:10.37,2013-02-10 03:25:00,
2013-02-10 14:30:00,100.8,59.6,29.20,NNE,22,3.5,3.5,26,0.00,CLR,OVC,0.00,WeatherDisplay:10.37,2013-02-10 03:30:00,
2013-02-10 14:35:00,100.4,58.2,29.20,ENE,68,4.6,4.6,25,0.00,CLR,OVC,0.00,WeatherDisplay:10.37,2013-02-10 03:35:00,
2013-02-10 14:40:00,99.9,58.8,29.20,West,270,2.3,0.0,26,0.00,CLR,OVC,0.00,WeatherDisplay:10.37,2013-02-10 03:40:00,
2013-02-10 14:45:00,100.4,59.3,29.20,NNW,338,3.5,3.5,26,0.00,CLR,OVC,0.00,WeatherDisplay:10.37,2013-02-10 03:45:00,
2013-02-10 14:50:00,100.6,58.4,29.20,North,0,4.6,4.6,25,0.00,CLR,OVC,0.00,WeatherDisplay:10.37,2013-02-10 03:50:00,
2013-02-10 14:55:00,100.0,59.0,29.20,ENE,68,3.5,3.5,26,0.00,CLR,OVC,0.00,WeatherDisplay:10.37,2013-02-10 03:55:00,
2013-02-10 15:00:00,99.9,57.8,29.20,NNW,338,2.3,2.3,25,0.00,CLR,OVC,0.00,WeatherDisplay:10.37,2013-02-10 04:00:00,
2013-02-10 15:05:00,99.9,58.8,29.20,East,90,6.9,6.9,26,0.00,CLR,OVC,0.00,WeatherDisplay:10.37,2013-02-10 04:05:00,
2013-02-10 15:10:00,99.7,58.7,29.20,East,90,2.3,2.3,26,0.00,CLR,OVC,0.00,WeatherDisplay:10.37,2013-02-10 04:10:00,
2013-02-10 15:15:00,99.0,58.1,29.20,SSE,158,3.5,3.5,26,0.00,CLR,OVC,0.00,WeatherDisplay:10.37,2013-02-10 04:15:00,
2013-02-10 15:20:00,98.4,58.7,29.20,NW,315,4.6,4.6,27,0.00,CLR,OVC,0.00,WeatherDisplay:10.37,2013-02-10 04:20:00,
2013-02-10 15:25:00,97.2,62.4,29.20,NE,45,4.6,4.6,32,0.00,CLR,OVC,0.00,WeatherDisplay:10.37,2013-02-10 04:25:00,
2013-02-10 15:30:00,95.9,63.0,29.20,NE,45,5.8,5.8,34,0.00,CLR,OVC,0.00,WeatherDisplay:10.37,2013-02-10 04:30:00,
2013-02-10 15:35:00,93.6,63.4,29.20,East,90,5.8,5.8,37,0.00,CLR,OVC,0.00,WeatherDisplay:10.37,2013-02-10 04:35:00,
2013-02-10 15:40:00,92.3,63.0,29.20,ENE,68,3.5,3.5,38,0.00,CLR,OVC,0.00,WeatherDisplay:10.37,2013-02-10 04:40:00,
2013-02-10 15:45:00,91.6,63.1,29.20,NE,45,3.5,3.5,39,0.00,CLR,OVC,0.00,WeatherDisplay:10.37,2013-02-10 04:45:00,
2013-02-10 15:50:00,91.2,63.5,29.20,NE,45,5.8,5.8,40,0.00,CLR,OVC,0.00,WeatherDisplay:10.37,2013-02-10 04:50:00,
2013-02-10 15:55:00,90.1,62.6,29.20,SE,135,8.1,8.1,40,0.00,CLR,OVC,0.00,WeatherDisplay:10.37,2013-02-10 04:55:00,
2013-02-10 16:00:00,89.4,63.3,29.20,ENE,68,2.9,2.9,42,0.00,CLR,OVC,0.00,WeatherDisplay:10.37,2013-02-10 05:00:00,
2013-02-10 16:05:00,88.9,63.5,29.20,NE,45,8.1,8.1,43,0.00,CLR,OVC,0.00,WeatherDisplay:10.37,2013-02-10 05:05:00,
2013-02-10 16:10:00,88.2,63.5,29.20,East,90,3.8,3.8,44,0.00,CLR,OVC,0.00,WeatherDisplay:10.37,2013-02-10 05:10:00,
2013-02-10 16:15:00,88.0,63.3,29.20,South,180,5.6,5.6,44,0.00,CLR,OVC,0.00,WeatherDisplay:10.37,2013-02-10 05:15:00,
2013-02-10 16:20:00,87.4,63.5,29.18,SE,135,2.3,2.3,45,0.00,CLR,OVC,0.00,WeatherDisplay:10.37,2013-02-10 05:20:00,
2013-02-10 16:25:00,87.1,63.8,29.18,ENE,68,3.5,3.5,46,0.00,CLR,OVC,0.00,WeatherDisplay:10.37,2013-02-10 05:25:00,
2013-02-10 16:30:00,86.7,64.1,29.18,ENE,68,0.0,0.0,47,0.00,CLR,OVC,0.00,WeatherDisplay:10.37,2013-02-10 05:30:00,
2013-02-10 16:35:00,86.4,64.4,29.24,ESE,112,1.2,0.0,48,0.00,CLR,OVC,0.00,WeatherDisplay:10.37,2013-02-10 05:35:00,
2013-02-10 16:40:00,85.6,63.7,29.24,ESE,112,4.6,4.6,48,0.00,CLR,OVC,0.00,WeatherDisplay:10.37,2013-02-10 05:40:00,
2013-02-10 16:45:00,84.7,63.5,29.24,SE,135,2.3,2.4,49,0.00,CLR,OVC,0.00,WeatherDisplay:10.37,2013-02-10 05:45:00,
2013-02-10 16:50:00,84.0,63.9,29.24,ENE,68,3.5,3.5,51,0.00,CLR,OVC,0.00,WeatherDisplay:10.37,2013-02-10 05:50:00,
2013-02-10 16:55:00,84.4,64.3,29.24,East,90,0.0,0.0,51,0.00,CLR,OVC,0.00,WeatherDisplay:10.37,2013-02-10 05:55:00,
2013-02-10 17:00:00,83.8,64.3,29.24,East,90,4.6,4.6,52,0.00,CLR,OVC,0.00,WeatherDisplay:10.37,2013-02-10 06:00:00,
2013-02-10 17:05:00,83.7,64.7,29.26,NNE,22,2.6,2.6,53,0.00,CLR,OVC,0.00,WeatherDisplay:10.37,2013-02-10 06:05:00,
2013-02-10 17:10:00,83.3,64.9,29.26,SSE,158,3.5,3.5,54,0.00,CLR,OVC,0.00,WeatherDisplay:10.37,2013-02-10 06:10:00,
2013-02-10 17:15:00,83.1,64.8,29.26,SE,135,6.9,6.9,54,0.00,CLR,OVC,0.00,WeatherDisplay:10.37,2013-02-10 06:15:00,
2013-02-10 17:20:00,83.1,64.8,29.26,NNE,22,2.3,0.0,54,0.00,CLR,OVC,0.00,WeatherDisplay:10.37,2013-02-10 06:20:00,
2013-02-10 17:25:00,83.7,65.3,29.26,SW,225,2.3,2.3,54,0.00,CLR,OVC,0.00,WeatherDisplay:10.37,2013-02-10 06:25:00,
2013-02-10 17:30:00,83.5,65.1,29.26,SSE,158,4.0,4.0,54,0.00,CLR,OVC,0.00,WeatherDisplay:10.37,2013-02-10 06:30:00,
2013-02-10 17:35:00,82.9,65.1,29.26,NE,45,2.3,2.3,55,0.00,CLR,OVC,0.00,WeatherDisplay:10.37,2013-02-10 06:35:00,
2013-02-10 17:40:00,82.9,65.1,29.26,East,90,3.5,3.5,55,0.00,CLR,OVC,0.00,WeatherDisplay:10.37,2013-02-10 06:40:00,
2013-02-10 17:45:00,82.8,64.9,29.26,SSW,202,2.3,2.3,55,0.00,CLR,OVC,0.00,WeatherDisplay:10.37,2013-02-10 06:45:00,
2013-02-10 17:50:00,82.9,65.6,29.26,NE,45,3.5,3.5,56,0.00,CLR,OVC,0.00,WeatherDisplay:10.37,2013-02-10 06:50:00,
2013-02-10 17:55:00,82.2,64.4,29.26,East,90,7.1,7.1,55,0.00,CLR,OVC,0.00,WeatherDisplay:10.37,2013-02-10 06:55:00,
2013-02-10 18:00:00,82.0,64.8,29.26,NNE,22,3.5,3.5,56,0.00,CLR,OVC,0.00,WeatherDisplay:10.37,2013-02-10 07:00:00,
2013-02-10 18:05:00,82.2,65.0,29.26,NNE,22,3.5,3.5,56,0.00,CLR,OVC,0.00,WeatherDisplay:10.37,2013-02-10 07:05:00,
2013-02-10 18:10:00,81.1,64.0,29.26,ESE,112,3.5,3.5,56,0.00,CLR,OVC,0.00,WeatherDisplay:10.37,2013-02-10 07:10:00,
2013-02-10 18:15:00,81.1,64.0,29.26,ESE,112,2.3,2.3,56,0.00,CLR,OVC,0.00,WeatherDisplay:10.37,2013-02-10 07:15:00,
2013-02-10 18:20:00,81.1,64.5,29.26,ESE,112,2.9,2.9,57,0.00,CLR,OVC,0.00,WeatherDisplay:10.37,2013-02-10 07:20:00,
2013-02-10 18:25:00,80.6,64.0,29.26,East,90,4.7,4.7,57,0.00,CLR,OVC,0.00,WeatherDisplay:10.37,2013-02-10 07:25:00,
2013-02-10 18:30:00,80.1,64.0,29.26,East,90,3.5,3.5,58,0.00,CLR,OVC,0.00,WeatherDisplay:10.37,2013-02-10 07:30:00,
2013-02-10 18:35:00,80.1,64.0,29.29,SSW,202,1.2,1.4,58,0.00,CLR,OVC,0.00,WeatherDisplay:10.37,2013-02-10 07:35:00,
2013-02-10 18:40:00,79.7,63.6,29.29,NNE,22,2.6,0.0,58,0.00,CLR,OVC,0.00,WeatherDisplay:10.37,2013-02-10 07:40:00,
2013-02-10 18:45:00,79.3,63.8,29.29,ESE,112,0.0,0.0,59,0.00,CLR,OVC,0.00,WeatherDisplay:10.37,2013-02-10 07:45:00,
2013-02-10 18:50:00,79.0,63.9,29.32,ENE,68,4.6,4.6,60,0.00,CLR,OVC,0.00,WeatherDisplay:10.37,2013-02-10 07:50:00,
2013-02-10 18:55:00,78.6,63.6,29.32,East,90,4.6,4.6,60,0.00,CLR,OVC,0.00,WeatherDisplay:10.37,2013-02-10 07:55:00,
2013-02-10 19:00:00,78.1,63.1,29.32,WSW,248,3.5,3.5,60,0.00,CLR,OVC,0.00,WeatherDisplay:10.37,2013-02-10 08:00:00,
2013-02-10 19:05:00,77.7,62.7,29.32,SE,135,5.8,5.8,60,0.00,CLR,OVC,0.00,WeatherDisplay:10.37,2013-02-10 08:05:00,
2013-02-10 19:10:00,77.2,62.2,29.32,East,90,4.6,4.6,60,0.00,CLR,OVC,0.00,WeatherDisplay:10.37,2013-02-10 08:10:00,
2013-02-10 19:15:00,77.0,62.5,29.32,SE,135,5.8,5.8,61,0.00,CLR,OVC,0.00,WeatherDisplay:10.37,2013-02-10 08:15:00,
2013-02-10 19:21:00,76.5,62.5,29.32,South,180,4.6,4.6,62,0.00,CLR,OVC,0.00,WeatherDisplay:10.37,2013-02-10 08:21:00,
2013-02-10 19:26:00,76.3,62.3,29.32,SSW,202,4.6,4.6,62,0.00,CLR,OVC,0.00,WeatherDisplay:10.37,2013-02-10 08:26:00,
2013-02-10 19:31:00,76.3,62.3,29.32,SSE,158,3.6,3.6,62,0.00,CLR,OVC,0.00,WeatherDisplay:10.37,2013-02-10 08:31:00,
2013-02-10 19:36:00,76.3,62.3,29.38,NE,45,3.3,0.0,62,0.00,CLR,OVC,0.00,WeatherDisplay:10.37,2013-02-10 08:36:00,
2013-02-10 19:41:00,75.7,62.2,29.38,ENE,68,4.6,4.6,63,0.00,CLR,OVC,0.00,WeatherDisplay:10.37,2013-02-10 08:41:00,
2013-02-10 19:46:00,75.4,61.9,29.38,ESE,112,5.8,5.8,63,0.00,CLR,OVC,0.00,WeatherDisplay:10.37,2013-02-10 08:46:00,
2013-02-10 19:51:00,75.4,61.9,29.38,WSW,248,2.6,0.0,63,0.00,CLR,OVC,0.00,WeatherDisplay:10.37,2013-02-10 08:51:00,
2013-02-10 19:56:00,75.4,61.9,29.38,SSE,158,4.3,4.3,63,0.00,CLR,OVC,0.00,WeatherDisplay:10.37,2013-02-10 08:56:00,
2013-02-10 20:01:00,75.4,61.9,29.38,SW,225,2.3,2.3,63,0.00,CLR,OVC,0.00,WeatherDisplay:10.37,2013-02-10 09:01:00,
2013-02-10 20:06:00,75.2,61.7,29.38,ENE,68,5.8,5.8,63,0.00,CLR,OVC,0.00,WeatherDisplay:10.37,2013-02-10 09:06:00,
2013-02-10 20:11:00,75.2,61.7,29.38,ENE,68,4.6,4.6,63,0.00,CLR,OVC,0.00,WeatherDisplay:10.37,2013-02-10 09:11:00,
2013-02-10 20:16:00,75.0,61.6,29.38,NE,45,3.5,3.5,63,0.00,CLR,OVC,0.00,WeatherDisplay:10.37,2013-02-10 09:16:00,
2013-02-10 20:21:00,74.8,61.8,29.44,East,90,5.8,5.8,64,0.00,CLR,OVC,0.00,WeatherDisplay:10.37,2013-02-10 09:21:00,
2013-02-10 20:26:00,74.5,61.5,29.44,East,90,2.3,2.3,64,0.00,CLR,OVC,0.00,WeatherDisplay:10.37,2013-02-10 09:26:00,
2013-02-10 20:31:00,74.7,61.7,29.44,South,180,2.3,2.9,64,0.00,CLR,OVC,0.00,WeatherDisplay:10.37,2013-02-10 09:31:00,
2013-02-10 20:46:00,72.3,61.6,29.44,South,180,7.4,7.4,69,0.00,CLR,OVC,0.00,WeatherDisplay:10.37,2013-02-10 09:46:00,
2013-02-10 20:51:00,71.8,61.5,29.47,West,270,3.1,3.1,70,0.00,CLR,OVC,0.00,WeatherDisplay:10.37,2013-02-10 09:51:00,
2013-02-10 20:56:00,71.6,61.7,29.47,SW,225,2.3,2.3,71,0.00,CLR,OVC,0.00,WeatherDisplay:10.37,2013-02-10 09:56:00,
2013-02-10 21:01:00,72.0,61.6,29.50,WNW,292,3.3,0.0,70,0.00,CLR,OVC,0.00,WeatherDisplay:10.37,2013-02-10 10:01:00,
2013-02-10 21:06:00,72.0,62.0,29.50,NW,315,2.9,0.0,71,0.00,CLR,OVC,0.00,WeatherDisplay:10.37,2013-02-10 10:06:00,
2013-02-10 21:11:00,72.0,62.4,29.50,NW,315,2.3,2.3,72,0.00,CLR,OVC,0.00,WeatherDisplay:10.37,2013-02-10 10:11:00,
2013-02-10 21:16:00,71.6,62.1,29.50,SSW,202,4.6,4.6,72,0.00,CLR,OVC,0.00,WeatherDisplay:10.37,2013-02-10 10:16:00,
2013-02-10 21:21:00,71.6,62.5,29.50,NNW,338,2.3,2.3,73,0.00,CLR,OVC,0.00,WeatherDisplay:10.37,2013-02-10 10:21:00,
2013-02-10 21:26:00,71.4,62.3,29.50,West,270,3.5,3.5,73,0.04,RA,OVC,0.04,WeatherDisplay:10.37,2013-02-10 10:26:00,
2013-02-10 21:31:00,71.1,62.0,29.50,South,180,4.6,4.6,73,0.04,RA,OVC,0.04,WeatherDisplay:10.37,2013-02-10 10:31:00,
2013-02-10 21:36:00,71.1,62.0,29.50,West,270,3.5,3.5,73,0.04,,OVC,0.04,WeatherDisplay:10.37,2013-02-10 10:36:00,
2013-02-10 21:41:00,71.4,61.9,29.50,SW,225,4.6,4.6,72,0.04,CLR,OVC,0.04,WeatherDisplay:10.37,2013-02-10 10:41:00,
2013-02-10 21:46:00,71.6,62.5,29.50,West,270,0.0,0.0,73,0.04,CLR,OVC,0.04,WeatherDisplay:10.37,2013-02-10 10:46:00,
2013-02-10 21:51:00,71.2,62.9,29.50,WNW,292,3.5,0.0,75,0.08,RA,OVC,0.08,WeatherDisplay:10.37,2013-02-10 10:51:00,
2013-02-10 21:56:00,71.1,62.7,29.50,West,270,3.5,3.5,75,0.08,RA,OVC,0.08,WeatherDisplay:10.37,2013-02-10 10:56:00,
2013-02-10 22:01:00,71.2,62.9,29.53,NNW,338,2.3,2.3,75,0.08,CLR,OVC,0.08,WeatherDisplay:10.37,2013-02-10 11:01:00,
2013-02-10 22:06:00,71.1,62.7,29.53,North,0,2.3,2.3,75,0.12,RA,OVC,0.12,WeatherDisplay:10.37,2013-02-10 11:06:00,
2013-02-10 22:11:00,70.7,62.8,29.53,SW,225,2.3,0.0,76,0.12,RA,OVC,0.12,WeatherDisplay:10.37,2013-02-10 11:11:00,
2013-02-10 22:16:00,70.9,62.9,29.56,WNW,292,3.5,3.5,76,0.12,CLR,OVC,0.12,WeatherDisplay:10.37,2013-02-10 11:16:00,
2013-02-10 22:21:00,71.1,62.7,29.56,WNW,292,0.0,0.0,75,0.12,CLR,OVC,0.12,WeatherDisplay:10.37,2013-02-10 11:21:00,
2013-02-10 22:26:00,71.2,63.3,29.56,West,270,0.0,0.0,76,0.13,RA,OVC,0.17,WeatherDisplay:10.37,2013-02-10 11:26:00,
2013-02-10 22:31:00,71.1,62.7,29.53,West,270,0.0,0.0,75,0.13,RA,OVC,0.17,WeatherDisplay:10.37,2013-02-10 11:31:00,
2013-02-10 22:36:00,71.1,62.7,29.53,WSW,248,1.2,1.2,75,0.17,RA,OVC,0.21,WeatherDisplay:10.37,2013-02-10 11:36:00,
2013-02-10 22:41:00,71.1,63.1,29.53,NNW,338,0.0,0.0,76,0.17,RA,OVC,0.21,WeatherDisplay:10.37,2013-02-10 11:41:00,
2013-02-10 22:46:00,70.9,62.6,29.50,SSE,158,0.0,0.0,75,0.17,CLR,OVC,0.21,WeatherDisplay:10.37,2013-02-10 11:46:00,
2013-02-10 22:51:00,71.1,63.1,29.50,WNW,292,0.0,0.0,76,0.13,CLR,OVC,0.25,WeatherDisplay:10.37,2013-02-10 11:51:00,
2013-02-10 22:56:00,70.9,62.9,29.50,NNE,22,0.0,0.0,76,0.17,RA,OVC,0.25,WeatherDisplay:10.37,2013-02-10 11:56:00,
2013-02-10 23:01:00,70.7,62.8,29.50,East,90,0.0,0.0,76,0.17,RA,OVC,0.25,WeatherDisplay:10.37,2013-02-10 12:01:00,
2013-02-10 23:06:00,70.0,62.8,29.50,ENE,68,3.5,3.5,78,0.13,CLR,OVC,0.25,WeatherDisplay:10.37,2013-02-10 12:06:00,
2013-02-10 23:11:00,68.9,62.1,29.50,NE,45,4.6,4.6,79,0.13,CLR,OVC,0.25,WeatherDisplay:10.37,2013-02-10 12:11:00,
2013-02-10 23:16:00,68.7,62.3,29.47,SSE,158,4.6,4.6,80,0.13,CLR,OVC,0.25,WeatherDisplay:10.37,2013-02-10 12:16:00,
2013-02-10 23:21:00,69.1,62.3,29.47,NNW,338,2.3,2.3,79,0.13,CLR,OVC,0.25,WeatherDisplay:10.37,2013-02-10 12:21:00,
2013-02-10 23:26:00,69.4,62.3,29.47,SW,225,0.0,0.0,78,0.08,CLR,OVC,0.25,WeatherDisplay:10.37,2013-02-10 12:26:00,
2013-02-10 23:31:00,69.8,62.6,29.47,West,270,0.0,0.0,78,0.08,CLR,OVC,0.25,WeatherDisplay:10.37,2013-02-10 12:31:00,
2013-02-10 23:36:00,69.8,62.6,29.47,ESE,112,0.0,0.0,78,0.04,CLR,OVC,0.25,WeatherDisplay:10.37,2013-02-10 12:36:00,
2013-02-10 23:41:00,69.8,62.6,29.47,SSE,158,0.0,0.0,78,0.04,CLR,OVC,0.25,WeatherDisplay:10.37,2013-02-10 12:41:00,
2013-02-10 23:46:00,70.0,62.4,29.50,SW,225,0.0,0.0,77,0.04,CLR,OVC,0.25,WeatherDisplay:10.37,2013-02-10 12:46:00,
2013-02-10 23:51:00,70.0,62.4,29.50,SW,225,2.4,2.4,77,0.04,CLR,OVC,0.25,WeatherDisplay:10.37,2013-02-10 12:51:00,
2013-02-10 23:56:00,70.0,62.4,29.50,WNW,292,4.6,4.6,77,0.00,CLR,OVC,0.25,WeatherDisplay:10.37,2013-02-10 12:56:00,